Terminal Aerodrome Forecast
Issued by NWS

Home | Current Version | Previous Version | Text Only | Print | Product List | Glossary On
Versions: 1 2 3 4 5 6 7 8 9 10 11 12 13
055
FTUS46 KMTR 072320
TAFMRY
TAF
KMRY 072320Z 0800/0824 04008KT P6SM SKC
     FM080200 09004KT P6SM SKC
     FM082100 34005KT P6SM SKC=

USA.gov is the U.S. government's official web portal to all federal, state and local government web resources and services.